createdAt,value
2022-11-30T00:00:55.840Z,7.15
2022-11-30T00:01:56.011Z,7.29
2022-11-30T00:02:56.382Z,7.18
2022-11-30T00:03:58.537Z,7.22
2022-11-30T00:04:55.777Z,7.18
2022-11-30T00:05:55.773Z,7.28
2022-11-30T00:06:55.804Z,7.21
2022-11-30T00:07:56.009Z,7.22
2022-11-30T00:08:55.851Z,7.14
2022-11-30T00:09:55.776Z,7.22
2022-11-30T00:10:55.791Z,7.22
2022-11-30T00:11:55.805Z,7.18
2022-11-30T00:12:55.778Z,7.19
2022-11-30T00:13:55.906Z,7.19
2022-11-30T00:14:58.878Z,7.15
2022-11-30T00:15:55.779Z,7.19
2022-11-30T00:16:55.964Z,7.18
2022-11-30T00:17:55.792Z,7.1
2022-11-30T00:18:55.811Z,7.19
2022-11-30T00:19:55.806Z,7.1
2022-11-30T00:20:55.866Z,7.15
2022-11-30T00:21:55.818Z,7.19
2022-11-30T00:22:55.794Z,7.18
2022-11-30T00:23:55.824Z,7.13
2022-11-30T00:24:55.834Z,7.1
2022-11-30T00:25:55.820Z,7.1
2022-11-30T00:26:55.837Z,7.05
2022-11-30T00:27:55.806Z,7.1
2022-11-30T00:28:55.808Z,7.13
2022-11-30T00:29:55.874Z,7.05
2022-11-30T00:30:56.003Z,7.11
2022-11-30T00:31:55.835Z,7.19
2022-11-30T00:32:55.816Z,7.11
2022-11-30T00:33:55.825Z,7.13
2022-11-30T00:34:55.820Z,7.11
2022-11-30T00:35:55.833Z,7.11
2022-11-30T00:36:55.839Z,7.05
2022-11-30T00:37:55.820Z,6.95
2022-11-30T00:38:55.829Z,7.08
2022-11-30T00:39:55.815Z,7
2022-11-30T00:40:55.842Z,7.08
2022-11-30T00:41:59.499Z,7.08
2022-11-30T00:42:55.814Z,6.96
2022-11-30T00:43:55.815Z,7.04
2022-11-30T00:44:55.833Z,7.07
2022-11-30T00:45:56.174Z,7
2022-11-30T00:46:58.619Z,6.97
2022-11-30T00:47:55.819Z,7.13
2022-11-30T00:48:55.837Z,7.08
2022-11-30T00:49:55.832Z,7.07
2022-11-30T00:50:55.829Z,7.1
2022-11-30T00:51:55.835Z,7.15
2022-11-30T00:52:55.841Z,7.1
2022-11-30T00:53:55.897Z,7.15
2022-11-30T00:54:55.826Z,7.03
2022-11-30T00:55:55.854Z,6.96
2022-11-30T00:56:55.897Z,7
2022-11-30T00:57:58.698Z,7.07
2022-11-30T00:58:55.824Z,7.18
2022-11-30T00:59:55.843Z,7.08
2022-11-30T01:00:55.878Z,7.19
2022-11-30T01:01:55.925Z,7.04
2022-11-30T01:02:55.952Z,7.05
2022-11-30T01:03:55.842Z,7.03
2022-11-30T01:04:55.848Z,6.9
2022-11-30T01:05:55.837Z,6.96
2022-11-30T01:06:55.845Z,7.1
2022-11-30T01:07:56.089Z,7.08
2022-11-30T01:08:58.939Z,7.01
2022-11-30T01:09:55.857Z,7.08
2022-11-30T01:10:55.860Z,7.04
2022-11-30T01:11:55.847Z,7.14
2022-11-30T01:12:55.945Z,7.08
2022-11-30T01:13:55.890Z,7.1
2022-11-30T01:14:55.871Z,7.03
2022-11-30T01:15:56.168Z,7.07
2022-11-30T01:17:00.790Z,7.03
2022-11-30T01:17:55.887Z,6.96
2022-11-30T01:18:55.858Z,7.03
2022-11-30T01:19:56.985Z,7.03
2022-11-30T01:20:55.853Z,7.04
2022-11-30T01:21:55.897Z,7.03
2022-11-30T01:22:55.878Z,7.05
2022-11-30T01:23:55.881Z,6.97
2022-11-30T01:24:55.880Z,7.07
2022-11-30T01:25:55.868Z,6.96
2022-11-30T01:26:55.879Z,7.03
2022-11-30T01:27:55.901Z,7
2022-11-30T01:28:55.921Z,7.03
2022-11-30T01:29:55.884Z,7.05
2022-11-30T01:30:58.918Z,7.08
2022-11-30T01:31:55.886Z,7.04
2022-11-30T01:32:55.956Z,7.01
2022-11-30T01:33:55.906Z,7.03
2022-11-30T01:34:55.885Z,7.01
2022-11-30T01:35:55.873Z,7.03
2022-11-30T01:36:55.875Z,7.05
2022-11-30T01:37:55.931Z,7.05
2022-11-30T01:38:55.887Z,7.01
2022-11-30T01:39:55.884Z,7.04
2022-11-30T01:40:55.897Z,6.93
2022-11-30T01:41:58.763Z,7.05
2022-11-30T01:42:55.923Z,7.05
2022-11-30T01:43:55.892Z,7
2022-11-30T01:44:55.961Z,7.01
2022-11-30T01:45:56.045Z,6.86
2022-11-30T01:46:55.979Z,7
2022-11-30T01:47:55.925Z,6.96
2022-11-30T01:48:55.952Z,7.01
2022-11-30T01:49:55.906Z,6.93
2022-11-30T01:50:55.910Z,6.97
2022-11-30T01:51:55.900Z,6.92
2022-11-30T01:52:58.946Z,7.01
2022-11-30T01:53:55.919Z,6.86
2022-11-30T01:54:55.892Z,6.96
2022-11-30T01:55:55.923Z,6.95
2022-11-30T01:56:55.944Z,6.96
2022-11-30T01:57:55.939Z,6.96
2022-11-30T01:58:55.927Z,6.95
2022-11-30T01:59:56.013Z,6.95
2022-11-30T02:00:55.959Z,6.95
2022-11-30T02:01:55.895Z,7.05
2022-11-30T02:02:56.388Z,6.9
2022-11-30T02:03:56.952Z,6.96
2022-11-30T02:04:55.978Z,6.92
2022-11-30T02:05:55.911Z,6.86
2022-11-30T02:06:55.919Z,6.87
2022-11-30T02:07:56.568Z,6.82
2022-11-30T02:08:58.935Z,6.87
2022-11-30T02:09:55.929Z,6.85
2022-11-30T02:10:55.916Z,6.89
2022-11-30T02:11:55.906Z,6.85
2022-11-30T02:12:55.957Z,6.9
2022-11-30T02:13:55.940Z,6.85
2022-11-30T02:14:57.363Z,6.82
2022-11-30T02:15:56.176Z,6.86
2022-11-30T02:16:56.113Z,6.82
2022-11-30T02:17:55.957Z,6.89
2022-11-30T02:18:55.937Z,6.86
2022-11-30T02:19:58.844Z,6.85
2022-11-30T02:20:55.941Z,6.87
2022-11-30T02:21:55.950Z,6.86
2022-11-30T02:22:55.971Z,6.95
2022-11-30T02:23:56.171Z,6.89
2022-11-30T02:24:55.952Z,6.87
2022-11-30T02:25:58.782Z,6.87
2022-11-30T02:26:56.201Z,6.86
2022-11-30T02:27:56.139Z,6.92
2022-11-30T02:28:56.011Z,6.92
2022-11-30T02:29:55.957Z,6.9
2022-11-30T02:30:59.148Z,6.89
2022-11-30T02:31:55.945Z,6.85
2022-11-30T02:32:56.085Z,6.87
2022-11-30T02:33:55.946Z,6.85
2022-11-30T02:34:55.955Z,6.96
2022-11-30T02:35:59.697Z,6.93
2022-11-30T02:36:55.978Z,6.86
2022-11-30T02:37:55.988Z,6.89
2022-11-30T02:38:55.970Z,6.93
2022-11-30T02:39:55.953Z,6.93
2022-11-30T02:40:55.957Z,6.87
2022-11-30T02:41:58.751Z,6.9
2022-11-30T02:42:55.989Z,6.92
2022-11-30T02:43:55.963Z,6.93
2022-11-30T02:44:56.000Z,6.92
2022-11-30T02:45:56.118Z,6.89
2022-11-30T02:46:55.958Z,6.89
2022-11-30T02:47:55.995Z,6.89
2022-11-30T02:48:55.983Z,6.85
2022-11-30T02:49:55.969Z,6.9
2022-11-30T02:50:55.985Z,6.78
2022-11-30T02:51:56.013Z,6.89
2022-11-30T02:52:56.067Z,6.92
2022-11-30T02:53:55.985Z,6.93
2022-11-30T02:54:55.966Z,6.92
2022-11-30T02:55:55.993Z,6.86
2022-11-30T02:56:55.995Z,6.89
2022-11-30T02:57:56.000Z,6.85
2022-11-30T02:58:55.989Z,6.92
2022-11-30T02:59:55.986Z,6.93
2022-11-30T03:00:55.987Z,6.92
2022-11-30T03:01:56.184Z,6.87
2022-11-30T03:02:56.249Z,6.82
2022-11-30T03:03:55.988Z,6.93
2022-11-30T03:04:56.028Z,6.87
2022-11-30T03:05:55.996Z,6.9
2022-11-30T03:06:55.981Z,6.86
2022-11-30T03:07:56.359Z,6.87
2022-11-30T03:08:59.097Z,6.85
2022-11-30T03:09:56.000Z,6.85
2022-11-30T03:10:55.991Z,6.85
2022-11-30T03:11:56.009Z,6.87
2022-11-30T03:12:56.028Z,6.92
2022-11-30T03:13:59.096Z,6.87
2022-11-30T03:14:56.012Z,6.8
2022-11-30T03:15:56.111Z,6.78
2022-11-30T03:16:56.003Z,6.85
2022-11-30T03:17:56.036Z,6.78
2022-11-30T03:18:56.018Z,6.78
2022-11-30T03:19:56.089Z,6.89
2022-11-30T03:20:56.025Z,6.93
2022-11-30T03:21:55.993Z,6.9
2022-11-30T03:22:56.023Z,6.82
2022-11-30T03:23:56.072Z,6.8
2022-11-30T03:24:59.030Z,6.75
2022-11-30T03:25:56.019Z,6.72
2022-11-30T03:26:56.024Z,6.78
2022-11-30T03:27:56.025Z,6.87
2022-11-30T03:28:56.031Z,6.82
2022-11-30T03:29:56.025Z,6.82
2022-11-30T03:30:56.130Z,6.9
2022-11-30T03:31:56.011Z,6.8
2022-11-30T03:32:56.029Z,6.8
2022-11-30T03:33:56.024Z,6.83
2022-11-30T03:34:56.123Z,6.77
2022-11-30T03:35:59.001Z,6.83
2022-11-30T03:36:56.065Z,6.9
2022-11-30T03:37:56.029Z,6.82
2022-11-30T03:38:56.020Z,6.82
2022-11-30T03:40:02.556Z,6.85
2022-11-30T03:40:56.037Z,6.75
2022-11-30T03:41:56.028Z,6.85
2022-11-30T03:42:56.069Z,6.8
2022-11-30T03:43:56.028Z,6.83
2022-11-30T03:44:56.049Z,6.82
2022-11-30T03:45:56.025Z,6.82
2022-11-30T03:46:57.209Z,6.87
2022-11-30T03:47:56.054Z,6.83
2022-11-30T03:48:56.033Z,6.83
2022-11-30T03:49:56.028Z,6.89
2022-11-30T03:50:56.039Z,6.72
2022-11-30T03:51:56.050Z,6.72
2022-11-30T03:52:56.107Z,6.7
2022-11-30T03:53:56.075Z,6.77
2022-11-30T03:54:56.043Z,6.78
2022-11-30T03:55:56.133Z,6.83
2022-11-30T03:56:56.043Z,6.74
2022-11-30T03:57:59.131Z,6.72
2022-11-30T03:58:56.055Z,6.75
2022-11-30T03:59:56.062Z,6.67
2022-11-30T04:00:56.075Z,6.67
2022-11-30T04:01:56.249Z,6.67
2022-11-30T04:02:56.336Z,6.75
2022-11-30T04:03:56.068Z,6.72
2022-11-30T04:04:56.060Z,6.77
2022-11-30T04:05:56.083Z,6.77
2022-11-30T04:06:56.073Z,6.68
2022-11-30T04:07:56.239Z,6.86
2022-11-30T04:08:58.844Z,6.77
2022-11-30T04:09:56.081Z,6.8
2022-11-30T04:10:56.075Z,6.85
2022-11-30T04:11:56.115Z,6.83
2022-11-30T04:12:56.067Z,6.74
2022-11-30T04:13:56.056Z,6.74
2022-11-30T04:14:56.065Z,6.72
2022-11-30T04:15:56.249Z,6.75
2022-11-30T04:16:56.073Z,6.68
2022-11-30T04:17:56.087Z,6.7
2022-11-30T04:18:55.905Z,6.8
2022-11-30T04:19:59.141Z,6.68
2022-11-30T04:20:56.078Z,6.74
2022-11-30T04:21:56.112Z,6.71
2022-11-30T04:22:56.110Z,6.83
2022-11-30T04:23:56.073Z,6.74
2022-11-30T04:24:56.095Z,6.75
2022-11-30T04:25:56.188Z,6.7
2022-11-30T04:26:56.125Z,6.82
2022-11-30T04:27:56.157Z,6.8
2022-11-30T04:28:56.083Z,6.78
2022-11-30T04:29:56.099Z,6.7
2022-11-30T04:30:59.322Z,6.64
2022-11-30T04:31:56.090Z,6.65
2022-11-30T04:32:56.110Z,6.68
2022-11-30T04:33:56.085Z,6.64
2022-11-30T04:34:56.106Z,6.64
2022-11-30T04:35:58.968Z,6.77
2022-11-30T04:37:06.450Z,6.75
2022-11-30T04:37:56.117Z,6.7
2022-11-30T04:38:56.088Z,6.71
2022-11-30T04:39:55.965Z,6.72
2022-11-30T04:40:56.121Z,6.68
2022-11-30T04:41:59.117Z,6.67
2022-11-30T04:42:56.158Z,6.72
2022-11-30T04:43:56.178Z,6.72
2022-11-30T04:44:56.098Z,6.71
2022-11-30T04:45:56.139Z,6.71
2022-11-30T04:46:59.342Z,6.67
2022-11-30T04:47:56.257Z,6.68
2022-11-30T04:48:56.111Z,6.71
2022-11-30T04:49:56.103Z,6.67
2022-11-30T04:50:56.146Z,6.68
2022-11-30T04:51:56.119Z,6.68
2022-11-30T04:52:58.966Z,6.71
2022-11-30T04:53:56.176Z,6.59
2022-11-30T04:54:56.129Z,6.68
2022-11-30T04:55:56.131Z,6.71
2022-11-30T04:56:56.185Z,6.67
2022-11-30T04:57:57.418Z,6.57
2022-11-30T04:58:56.140Z,6.7
2022-11-30T04:59:56.199Z,6.67
2022-11-30T05:00:56.192Z,6.59
2022-11-30T05:01:56.372Z,6.67
2022-11-30T05:02:57.896Z,6.64
2022-11-30T05:03:56.001Z,6.68
2022-11-30T05:04:56.615Z,6.54
2022-11-30T05:05:56.138Z,6.6
2022-11-30T05:06:56.121Z,6.57
2022-11-30T05:07:56.502Z,6.59
2022-11-30T05:08:59.012Z,6.59
2022-11-30T05:09:55.971Z,6.54
2022-11-30T05:10:57.841Z,6.57
2022-11-30T05:11:56.143Z,6.62
2022-11-30T05:12:56.186Z,6.62
2022-11-30T05:13:56.138Z,6.59
2022-11-30T05:14:56.197Z,6.6
2022-11-30T05:15:56.657Z,6.57
2022-11-30T05:16:56.136Z,6.56
2022-11-30T05:17:56.162Z,6.57
2022-11-30T05:18:56.147Z,6.53
2022-11-30T05:19:56.143Z,6.5
2022-11-30T05:20:56.134Z,6.53
2022-11-30T05:21:56.139Z,6.53
2022-11-30T05:22:56.179Z,6.57
2022-11-30T05:23:56.153Z,6.62
2022-11-30T05:24:56.136Z,6.5
2022-11-30T05:25:56.159Z,6.56
2022-11-30T05:26:56.131Z,6.52
2022-11-30T05:27:56.180Z,6.5
2022-11-30T05:28:56.218Z,6.47
2022-11-30T05:29:56.142Z,6.5
2022-11-30T05:30:56.173Z,6.5
2022-11-30T05:31:56.337Z,6.38
2022-11-30T05:32:56.215Z,6.43
2022-11-30T05:33:56.146Z,6.47
2022-11-30T05:34:57.620Z,6.46
2022-11-30T05:35:56.161Z,6.36
2022-11-30T05:36:56.155Z,6.36
2022-11-30T05:37:56.183Z,6.5
2022-11-30T05:38:56.166Z,6.46
2022-11-30T05:39:56.196Z,6.38
2022-11-30T05:40:59.210Z,6.36
2022-11-30T05:41:56.168Z,6.43
2022-11-30T05:42:56.245Z,6.39
2022-11-30T05:43:56.160Z,6.38
2022-11-30T05:44:56.270Z,6.47
2022-11-30T05:45:56.188Z,6.38
2022-11-30T05:46:56.345Z,6.43
2022-11-30T05:47:56.268Z,6.38
2022-11-30T05:48:56.198Z,6.35
2022-11-30T05:49:56.174Z,6.41
2022-11-30T05:50:56.181Z,6.36
2022-11-30T05:51:59.094Z,6.36
2022-11-30T05:52:56.293Z,6.34
2022-11-30T05:53:56.198Z,6.35
2022-11-30T05:54:56.183Z,6.39
2022-11-30T05:55:56.176Z,6.34
2022-11-30T05:56:59.743Z,6.31
2022-11-30T05:57:56.230Z,6.35
2022-11-30T05:58:56.180Z,6.28
2022-11-30T05:59:56.256Z,6.31
2022-11-30T06:00:56.225Z,6.38
2022-11-30T06:01:56.940Z,6.28
2022-11-30T06:02:59.918Z,6.29
2022-11-30T06:03:56.177Z,6.2
2022-11-30T06:04:56.184Z,6.2
2022-11-30T06:05:56.196Z,6.32
2022-11-30T06:06:56.189Z,6.31
2022-11-30T06:07:56.370Z,6.2
2022-11-30T06:08:56.196Z,6.26
2022-11-30T06:09:56.194Z,6.36
2022-11-30T06:10:56.199Z,6.28
2022-11-30T06:11:56.220Z,6.26
2022-11-30T06:12:56.200Z,6.25
2022-11-30T06:13:58.947Z,6.25
2022-11-30T06:14:56.200Z,6.12
2022-11-30T06:15:56.220Z,6.31
2022-11-30T06:16:56.355Z,6.22
2022-11-30T06:17:56.050Z,6.22
2022-11-30T06:18:56.249Z,6.25
2022-11-30T06:19:56.218Z,6.19
2022-11-30T06:20:56.214Z,6.17
2022-11-30T06:21:56.232Z,6.17
2022-11-30T06:22:56.226Z,6.2
2022-11-30T06:23:56.073Z,6.15
2022-11-30T06:24:59.284Z,6.22
2022-11-30T06:25:56.222Z,6.17
2022-11-30T06:26:56.213Z,6.07
2022-11-30T06:27:56.212Z,6.17
2022-11-30T06:28:56.233Z,6.17
2022-11-30T06:29:56.227Z,6.12
2022-11-30T06:30:56.222Z,6.12
2022-11-30T06:31:56.452Z,6.1
2022-11-30T06:32:56.250Z,6.17
2022-11-30T06:33:56.229Z,6.19
2022-11-30T06:34:56.296Z,6.15
2022-11-30T06:35:59.341Z,6.15
2022-11-30T06:36:56.227Z,6.22
2022-11-30T06:37:56.235Z,6.17
2022-11-30T06:38:56.241Z,6.25
2022-11-30T06:40:11.105Z,6.12
2022-11-30T06:40:56.224Z,6.15
2022-11-30T06:41:59.100Z,6.15
2022-11-30T06:42:56.248Z,6.17
2022-11-30T06:43:56.245Z,6.2
2022-11-30T06:44:56.229Z,6.22
2022-11-30T06:45:56.392Z,6.13
2022-11-30T06:46:59.299Z,6.16
2022-11-30T06:47:56.249Z,6.26
2022-11-30T06:48:56.281Z,6.1
2022-11-30T06:49:56.246Z,6.1
2022-11-30T06:50:56.300Z,6.07
2022-11-30T06:51:56.251Z,6.13
2022-11-30T06:52:56.257Z,6.15
2022-11-30T06:53:56.254Z,6.22
2022-11-30T06:54:56.244Z,6.13
2022-11-30T06:55:56.117Z,6.17
2022-11-30T06:56:56.298Z,6.17
2022-11-30T06:57:59.083Z,6.19
2022-11-30T06:58:56.260Z,6.15
2022-11-30T06:59:56.115Z,6.25
2022-11-30T07:00:56.354Z,6.19
2022-11-30T07:01:56.261Z,6.17
2022-11-30T07:02:56.333Z,6.26
2022-11-30T07:03:56.437Z,6.15
2022-11-30T07:04:56.285Z,6.17
2022-11-30T07:05:56.269Z,6.12
2022-11-30T07:06:56.351Z,6.15
2022-11-30T07:07:56.368Z,6.2
2022-11-30T07:08:59.369Z,6.2
2022-11-30T07:09:56.270Z,6.15
2022-11-30T07:10:56.340Z,6.16
2022-11-30T07:11:56.287Z,6.22
2022-11-30T07:12:56.285Z,6.15
2022-11-30T07:13:57.120Z,6.17
2022-11-30T07:14:56.307Z,6.19
2022-11-30T07:15:56.298Z,6.28
2022-11-30T07:16:56.537Z,6.16
2022-11-30T07:17:56.286Z,6.16
2022-11-30T07:18:56.334Z,6.25
2022-11-30T07:19:59.080Z,6.28
2022-11-30T07:20:56.321Z,6.26
2022-11-30T07:21:56.292Z,6.28
2022-11-30T07:22:56.332Z,6.32
2022-11-30T07:24:01.105Z,6.26
2022-11-30T07:24:57.398Z,6.28
2022-11-30T07:25:56.301Z,6.19
2022-11-30T07:26:56.301Z,6.26
2022-11-30T07:27:56.299Z,6.22
2022-11-30T07:28:56.508Z,6.19
2022-11-30T07:29:56.177Z,6.22
2022-11-30T07:30:56.349Z,6.41
2022-11-30T07:31:56.692Z,6.26
2022-11-30T07:32:56.310Z,6.32
2022-11-30T07:33:56.143Z,6.29
2022-11-30T07:34:56.303Z,6.28
2022-11-30T07:35:59.112Z,6.19
2022-11-30T07:36:56.311Z,6.25
2022-11-30T07:37:56.348Z,6.32
2022-11-30T07:38:56.372Z,6.16
2022-11-30T07:39:56.325Z,6.31
2022-11-30T07:40:56.349Z,6.28
2022-11-30T07:41:56.337Z,6.22
2022-11-30T07:42:56.361Z,6.26
2022-11-30T07:43:56.349Z,6.17
2022-11-30T07:45:03.240Z,6.22
2022-11-30T07:45:56.433Z,6.15
2022-11-30T07:46:56.342Z,6.22
2022-11-30T07:47:56.337Z,6.22
2022-11-30T07:48:56.337Z,6.25
2022-11-30T07:49:56.337Z,6.31
2022-11-30T07:50:56.374Z,6.26
2022-11-30T07:51:56.360Z,6.39
2022-11-30T07:52:56.354Z,6.2
2022-11-30T07:53:56.331Z,6.25
2022-11-30T07:54:56.392Z,6.16
2022-11-30T07:56:01.540Z,6.19
2022-11-30T07:56:56.342Z,6.15
2022-11-30T07:57:56.360Z,6.19
2022-11-30T07:58:56.475Z,6.19
2022-11-30T07:59:56.357Z,6.19
2022-11-30T08:00:56.791Z,6.1
2022-11-30T08:01:56.920Z,6.17
2022-11-30T08:02:56.352Z,6.26
2022-11-30T08:03:56.373Z,6.2
2022-11-30T08:04:56.762Z,6.25
2022-11-30T08:05:56.387Z,6.31
2022-11-30T08:06:56.375Z,6.26
2022-11-30T08:07:59.315Z,6.29
2022-11-30T08:08:56.391Z,6.32
2022-11-30T08:09:56.362Z,6.41
2022-11-30T08:10:56.409Z,6.39
2022-11-30T08:11:56.381Z,6.38
2022-11-30T08:12:56.363Z,6.35
2022-11-30T08:13:56.377Z,6.36
2022-11-30T08:15:32.022Z,6.32
2022-11-30T08:15:56.391Z,6.39
2022-11-30T08:16:56.623Z,6.36
2022-11-30T08:17:56.370Z,6.36
2022-11-30T08:18:59.390Z,6.43
2022-11-30T08:19:56.398Z,6.46
2022-11-30T08:20:56.382Z,6.46
2022-11-30T08:21:56.385Z,6.41
2022-11-30T08:22:56.379Z,6.38
2022-11-30T08:23:56.779Z,6.36
2022-11-30T08:24:56.652Z,6.52
2022-11-30T08:25:56.378Z,6.54
2022-11-30T08:26:56.491Z,6.36
2022-11-30T08:27:56.412Z,6.49
2022-11-30T08:28:56.401Z,6.53
2022-11-30T08:30:00.303Z,6.47
2022-11-30T08:30:56.619Z,6.46
2022-11-30T08:31:56.395Z,6.47
2022-11-30T08:32:56.391Z,6.53
2022-11-30T08:33:56.407Z,6.5
2022-11-30T08:34:56.420Z,6.56
2022-11-30T08:35:56.399Z,6.35
2022-11-30T08:36:56.711Z,6.34
2022-11-30T08:37:56.395Z,6.43
2022-11-30T08:38:56.393Z,6.53
2022-11-30T08:39:56.467Z,6.39
2022-11-30T08:40:57.456Z,6.39
2022-11-30T08:41:56.393Z,6.46
2022-11-30T08:42:56.468Z,6.5
2022-11-30T08:43:56.413Z,6.47
2022-11-30T08:44:56.447Z,6.38
2022-11-30T08:46:00.613Z,6.46
2022-11-30T08:46:57.555Z,6.35
2022-11-30T08:47:56.405Z,6.39
2022-11-30T09:01:01.937Z,6.36
2022-11-30T09:02:01.848Z,6.36
2022-11-30T09:03:02.390Z,6.31
2022-11-30T09:04:01.853Z,6.39
2022-11-30T09:05:01.834Z,6.36
2022-11-30T09:06:01.875Z,6.31
2022-11-30T09:07:01.949Z,6.46
2022-11-30T09:08:02.029Z,6.46
2022-11-30T09:09:04.926Z,6.52
2022-11-30T09:10:01.898Z,6.52
2022-11-30T09:11:01.893Z,6.54
2022-11-30T09:12:01.855Z,6.56
2022-11-30T09:13:01.880Z,6.52
2022-11-30T09:14:01.873Z,6.5
2022-11-30T09:15:03.738Z,6.53
2022-11-30T09:16:02.109Z,6.6
2022-11-30T09:17:01.930Z,6.53
2022-11-30T09:18:01.855Z,6.54
2022-11-30T09:19:02.133Z,6.54
2022-11-30T09:20:04.925Z,6.54
2022-11-30T09:21:01.881Z,6.46
2022-11-30T09:22:01.867Z,6.52
2022-11-30T09:23:01.856Z,6.6
2022-11-30T09:24:01.868Z,6.59
2022-11-30T09:25:01.884Z,6.56
2022-11-30T09:26:01.892Z,6.57
2022-11-30T09:27:01.904Z,6.47
2022-11-30T09:28:01.864Z,6.34
2022-11-30T09:29:01.879Z,6.39
2022-11-30T09:30:01.867Z,6.49
2022-11-30T09:31:03.236Z,6.38
2022-11-30T09:32:01.898Z,6.28
2022-11-30T09:33:01.952Z,6.35
2022-11-30T09:34:01.884Z,6.28
2022-11-30T09:35:01.888Z,6.26
2022-11-30T09:36:03.209Z,6.34
2022-11-30T09:37:01.877Z,6.39
2022-11-30T09:38:01.882Z,6.39
2022-11-30T09:39:01.884Z,6.29
2022-11-30T09:40:01.884Z,6.35
2022-11-30T09:41:01.917Z,6.36
2022-11-30T09:42:05.003Z,6.38
2022-11-30T09:43:02.014Z,6.35
2022-11-30T09:44:01.898Z,6.32
2022-11-30T09:45:01.883Z,6.34
2022-11-30T09:46:02.141Z,6.39
2022-11-30T09:47:02.968Z,6.38
2022-11-30T09:48:01.913Z,6.32
2022-11-30T09:49:01.938Z,6.39
2022-11-30T09:50:01.913Z,6.43
2022-11-30T09:51:01.925Z,6.29
2022-11-30T09:52:01.892Z,6.29
2022-11-30T09:53:01.938Z,6.34
2022-11-30T09:54:01.910Z,6.38
2022-11-30T09:55:01.912Z,6.31
2022-11-30T09:56:01.955Z,6.31
2022-11-30T09:57:01.905Z,6.43
2022-11-30T09:58:01.899Z,6.39
2022-11-30T09:59:01.962Z,6.36
2022-11-30T10:00:01.965Z,6.41
2022-11-30T10:01:08.907Z,6.44
2022-11-30T10:02:02.255Z,6.39
2022-11-30T10:03:02.336Z,6.38
2022-11-30T10:04:01.966Z,6.38
2022-11-30T10:05:01.987Z,6.47
2022-11-30T10:06:01.964Z,6.52
2022-11-30T10:07:02.074Z,6.35
2022-11-30T10:08:02.156Z,6.43
2022-11-30T10:09:02.149Z,6.49
2022-11-30T10:10:36.129Z,6.47
2022-11-30T10:11:01.960Z,6.5
2022-11-30T10:12:01.935Z,6.28
2022-11-30T10:13:01.958Z,6.29
2022-11-30T10:14:04.752Z,6.38
2022-11-30T10:15:05.291Z,6.38
2022-11-30T10:16:02.173Z,6.32
2022-11-30T10:17:01.998Z,6.35
2022-11-30T10:18:01.934Z,6.43
2022-11-30T10:19:01.924Z,6.36
2022-11-30T10:20:01.956Z,6.39
2022-11-30T10:21:02.040Z,6.35
2022-11-30T10:22:01.939Z,6.39
2022-11-30T10:23:01.939Z,6.46
2022-11-30T10:24:01.949Z,6.43
2022-11-30T10:25:03.844Z,6.47
2022-11-30T10:26:01.959Z,6.36
2022-11-30T10:27:01.950Z,6.36
2022-11-30T10:28:44.755Z,6.43
2022-11-30T10:29:01.969Z,6.46
2022-11-30T10:30:04.850Z,6.38
2022-11-30T10:31:02.262Z,6.34
2022-11-30T10:32:01.950Z,6.32
2022-11-30T10:33:01.976Z,6.2
2022-11-30T10:34:01.987Z,6.25
2022-11-30T10:35:01.950Z,6.19
2022-11-30T10:36:02.006Z,6.22
2022-11-30T10:37:02.014Z,6.2
2022-11-30T10:38:01.970Z,6.22
2022-11-30T10:39:01.961Z,6.32
2022-11-30T10:40:01.944Z,6.16
2022-11-30T10:41:05.080Z,6.22
2022-11-30T10:42:01.971Z,6.07
2022-11-30T10:43:01.968Z,6.07
2022-11-30T10:44:01.958Z,6.13
2022-11-30T10:45:01.964Z,6.12
2022-11-30T10:46:02.196Z,6.09
2022-11-30T10:47:02.145Z,6.15
2022-11-30T10:48:02.011Z,6.31
2022-11-30T10:49:01.966Z,6.15
2022-11-30T10:50:01.983Z,6.12
2022-11-30T10:51:02.007Z,6.22
2022-11-30T10:52:05.070Z,6.32
2022-11-30T10:53:01.962Z,6.22
2022-11-30T10:54:01.994Z,6.22
2022-11-30T10:55:08.229Z,6.17
2022-11-30T10:56:01.996Z,6.22
2022-11-30T10:57:01.971Z,6.28
2022-11-30T10:58:01.987Z,6.34
2022-11-30T10:59:02.004Z,6.32
2022-11-30T11:00:01.981Z,6.35
2022-11-30T11:01:01.994Z,6.32
2022-11-30T11:02:02.225Z,6.32
2022-11-30T11:03:03.238Z,6.2
2022-11-30T11:04:02.163Z,6.35
2022-11-30T11:05:02.002Z,6.31
2022-11-30T11:06:01.986Z,6.28
2022-11-30T11:07:02.208Z,6.29
2022-11-30T11:08:09.934Z,6.29
2022-11-30T11:09:01.995Z,6.22
2022-11-30T11:10:01.989Z,6.19
2022-11-30T11:11:02.009Z,6.22
2022-11-30T11:12:02.013Z,6.29
2022-11-30T11:13:01.987Z,6.34
2022-11-30T11:14:05.110Z,6.29
2022-11-30T11:15:01.990Z,6.41
2022-11-30T11:16:02.400Z,6.2
2022-11-30T11:17:02.008Z,6.29
2022-11-30T11:18:02.018Z,6.34
2022-11-30T11:19:02.008Z,6.34
2022-11-30T11:20:02.011Z,6.22
2022-11-30T11:21:09.278Z,6.32
2022-11-30T11:22:02.006Z,6.28
2022-11-30T11:23:02.014Z,6.31
2022-11-30T11:24:02.106Z,6.29
2022-11-30T11:25:05.153Z,6.25
2022-11-30T11:26:02.020Z,6.25
2022-11-30T11:27:02.021Z,6.41
2022-11-30T11:28:02.006Z,6.32
2022-11-30T11:29:02.021Z,6.19
2022-11-30T11:30:02.006Z,6.19
2022-11-30T11:31:02.469Z,6.19
2022-11-30T11:32:02.047Z,6.2
2022-11-30T11:33:02.058Z,6.22
2022-11-30T11:34:02.015Z,6.2
2022-11-30T11:35:02.013Z,6.28
2022-11-30T11:36:05.037Z,6.19
2022-11-30T11:37:02.065Z,6.2
2022-11-30T11:38:02.030Z,6.19
2022-11-30T11:39:02.035Z,6.19
2022-11-30T11:40:02.113Z,6.31
2022-11-30T11:41:02.114Z,6.22
2022-11-30T11:42:02.208Z,6.36
2022-11-30T11:43:02.037Z,6.32
2022-11-30T11:44:02.032Z,6.34
2022-11-30T11:45:02.168Z,6.29
2022-11-30T11:46:02.303Z,6.28
2022-11-30T11:47:04.904Z,6.32
2022-11-30T11:48:02.072Z,6.32
2022-11-30T11:49:02.097Z,6.31
2022-11-30T11:50:02.051Z,6.38
2022-11-30T11:51:11.595Z,6.26
2022-11-30T11:52:02.108Z,6.34
2022-11-30T11:53:02.075Z,6.34
2022-11-30T11:54:02.299Z,6.17
2022-11-30T11:55:02.041Z,6.28
2022-11-30T11:56:02.134Z,6.39
2022-11-30T11:57:02.096Z,6.32
2022-11-30T11:58:04.905Z,6.39
2022-11-30T11:59:02.101Z,6.36
2022-11-30T12:00:02.097Z,6.32
2022-11-30T12:01:46.717Z,6.32
2022-11-30T12:02:02.127Z,6.32
2022-11-30T12:03:05.149Z,6.35
2022-11-30T12:04:02.253Z,6.39
2022-11-30T12:05:02.088Z,6.34
2022-11-30T12:06:02.081Z,6.13
2022-11-30T12:07:02.088Z,6.22
2022-11-30T12:08:02.206Z,6.31
2022-11-30T12:09:05.067Z,6.38
2022-11-30T12:10:02.083Z,6.36
2022-11-30T12:11:04.926Z,6.31
2022-11-30T12:12:02.113Z,6.22
2022-11-30T12:13:02.079Z,6.28
2022-11-30T12:14:03.108Z,6.25
2022-11-30T12:15:03.274Z,6.17
2022-11-30T12:16:02.674Z,6.26
2022-11-30T12:17:02.108Z,6.15
2022-11-30T12:18:02.100Z,6.13
2022-11-30T12:19:02.080Z,6.28
2022-11-30T12:20:02.110Z,6.26
2022-11-30T12:21:02.099Z,6.19
2022-11-30T12:22:02.104Z,6.29
2022-11-30T12:23:02.088Z,6.26
2022-11-30T12:24:02.655Z,6.2
2022-11-30T12:25:11.698Z,6.29
2022-11-30T12:26:02.159Z,6.32
2022-11-30T12:27:02.172Z,6.28
2022-11-30T12:28:02.181Z,6.2
2022-11-30T12:29:02.095Z,6.25
2022-11-30T12:30:02.095Z,6.19
2022-11-30T12:31:02.308Z,6.31
2022-11-30T12:32:02.135Z,6.07
2022-11-30T12:33:02.107Z,6.13
2022-11-30T12:34:02.122Z,6.15
2022-11-30T12:35:02.113Z,6.09
2022-11-30T12:36:02.097Z,6.1
2022-11-30T12:37:02.142Z,6.19
2022-11-30T12:38:02.138Z,6.19
2022-11-30T12:39:02.104Z,6.19
2022-11-30T12:40:02.116Z,6.16
2022-11-30T12:41:04.878Z,6.26
2022-11-30T12:42:02.127Z,6.2
2022-11-30T12:43:02.172Z,6.25
2022-11-30T12:44:02.205Z,6.2
2022-11-30T12:45:02.103Z,6.2
2022-11-30T12:46:02.122Z,6.22
2022-11-30T12:47:02.330Z,6.2
2022-11-30T12:48:02.170Z,6.32
2022-11-30T12:49:02.284Z,6.31
2022-11-30T12:50:02.127Z,6.34
2022-11-30T12:51:02.112Z,6.29
2022-11-30T12:52:02.155Z,6.26
2022-11-30T12:53:02.130Z,6.25
2022-11-30T12:54:02.122Z,6.34
2022-11-30T12:55:02.209Z,6.35
2022-11-30T12:56:02.128Z,6.31
2022-11-30T12:57:05.246Z,6.31
2022-11-30T12:58:02.136Z,6.31
2022-11-30T12:59:02.221Z,6.26
2022-11-30T13:00:02.250Z,6.26
2022-11-30T13:01:02.480Z,6.32
2022-11-30T13:02:02.311Z,6.25
2022-11-30T13:03:02.124Z,6.38
2022-11-30T13:04:02.194Z,6.43
2022-11-30T13:05:03.941Z,6.36
2022-11-30T13:06:02.165Z,6.35
2022-11-30T13:07:02.157Z,6.38
2022-11-30T13:08:05.362Z,6.32
2022-11-30T13:09:02.184Z,6.36
2022-11-30T13:10:02.178Z,6.38
2022-11-30T13:11:02.164Z,6.35
2022-11-30T13:12:02.182Z,6.43
2022-11-30T13:13:02.181Z,6.43
2022-11-30T13:14:02.144Z,6.36
2022-11-30T13:15:02.203Z,6.35
2022-11-30T13:16:02.514Z,6.28
2022-11-30T13:17:02.176Z,6.31
2022-11-30T13:18:02.203Z,6.34
2022-11-30T13:19:05.300Z,6.35
2022-11-30T13:20:02.160Z,6.22
2022-11-30T13:21:09.399Z,6.38
2022-11-30T13:22:02.188Z,6.31
2022-11-30T13:23:02.151Z,6.34
2022-11-30T13:24:02.168Z,6.31
2022-11-30T13:25:02.182Z,6.19
2022-11-30T13:26:20.616Z,6.31
2022-11-30T13:27:02.189Z,6.29
2022-11-30T13:28:02.907Z,6.31
2022-11-30T13:29:02.169Z,6.26
2022-11-30T13:30:03.229Z,6.34
2022-11-30T13:31:02.665Z,6.26
2022-11-30T13:32:02.315Z,6.32
2022-11-30T13:33:03.481Z,6.36
2022-11-30T13:34:02.208Z,6.35